createdAt,value
2022-09-15T00:04:37.444Z,10.13
2022-09-15T00:09:38.901Z,9.73
2022-09-15T00:14:40.394Z,10.98
2022-09-15T00:19:41.887Z,10.52
2022-09-15T00:24:43.310Z,9.52
2022-09-15T00:29:44.736Z,9.30
2022-09-15T00:34:46.140Z,9.85
2022-09-15T00:39:48.382Z,10.00
2022-09-15T00:44:52.776Z,10.00
2022-09-15T00:49:59.643Z,10.70
2022-09-15T00:55:08.371Z,10.25
2022-09-15T01:05:17.504Z,8.45
2022-09-15T01:10:40.048Z,9.00
2022-09-15T01:15:53.285Z,8.88
2022-09-15T01:21:05.024Z,7.68
2022-09-15T01:26:30.106Z,8.70
2022-09-15T01:32:06.565Z,7.10
2022-09-15T01:37:14.843Z,7.65
2022-09-15T01:42:18.241Z,7.53
2022-09-15T01:47:21.121Z,7.13
2022-09-15T01:52:24.791Z,7.93
2022-09-15T01:57:27.404Z,7.85
2022-09-15T02:02:42.943Z,7.32
2022-09-15T02:08:10.763Z,8.50
2022-09-15T02:13:30.913Z,8.67
2022-09-15T02:18:56.285Z,9.15
2022-09-15T02:24:05.753Z,10.05
2022-09-15T02:29:13.124Z,10.40
2022-09-15T02:34:23.913Z,11.13
2022-09-15T02:39:32.161Z,11.15
2022-09-15T02:44:33.633Z,11.68
2022-09-15T02:49:35.033Z,12.18
2022-09-15T02:54:36.492Z,12.10
2022-09-15T02:59:56.256Z,11.90
2022-09-15T03:04:57.755Z,11.77
2022-09-15T03:09:59.310Z,12.07
2022-09-15T03:15:00.696Z,10.68
2022-09-15T03:20:04.521Z,12.10
2022-09-15T03:25:06.619Z,10.43
2022-09-15T03:30:09.320Z,10.10
2022-09-15T03:35:10.751Z,8.55
2022-09-15T03:40:12.197Z,7.82
2022-09-15T03:45:13.796Z,5.90
2022-09-15T03:50:15.209Z,4.75
2022-09-15T03:55:17.192Z,5.22
2022-09-15T04:00:19.063Z,5.40
2022-09-15T04:05:20.565Z,4.78
2022-09-15T04:10:24.521Z,4.97
2022-09-15T04:15:25.932Z,5.00
2022-09-15T04:20:27.428Z,5.68
2022-09-15T04:25:29.528Z,5.88
2022-09-15T04:30:30.955Z,5.05
2022-09-15T04:35:32.352Z,4.30
2022-09-15T04:40:33.869Z,5.05
2022-09-15T04:45:35.394Z,3.97
2022-09-15T04:50:36.799Z,4.03
2022-09-15T04:55:38.716Z,5.45
2022-09-15T05:00:43.397Z,6.38
2022-09-15T05:05:44.932Z,7.10
2022-09-15T05:10:46.349Z,7.22
2022-09-15T05:15:47.914Z,5.72
2022-09-15T05:20:49.427Z,5.82
2022-09-15T05:26:01.755Z,6.57
2022-09-15T05:31:12.110Z,7.25
2022-09-15T05:36:15.164Z,7.53
2022-09-15T05:41:19.118Z,7.70
2022-09-15T05:46:20.682Z,7.20
2022-09-15T05:51:22.957Z,6.18
2022-09-15T05:56:24.420Z,5.80
2022-09-15T06:01:31.001Z,5.88
2022-09-15T06:06:32.632Z,5.88
2022-09-15T06:11:34.086Z,6.70
2022-09-15T06:16:36.005Z,6.15
2022-09-15T06:21:37.609Z,5.63
2022-09-15T06:26:39.045Z,5.72
2022-09-15T06:31:40.633Z,5.10
2022-09-15T06:36:42.209Z,5.57
2022-09-15T06:42:01.395Z,4.93
2022-09-15T06:47:04.144Z,5.85
2022-09-15T06:52:06.256Z,4.55
2022-09-15T06:57:08.078Z,5.50
2022-09-15T07:02:09.857Z,5.50
2022-09-15T07:07:11.379Z,5.72
2022-09-15T07:12:12.804Z,4.60
2022-09-15T07:17:14.214Z,4.07
2022-09-15T07:22:15.611Z,4.07
2022-09-15T07:27:17.033Z,3.90
2022-09-15T07:32:18.433Z,3.80
2022-09-15T07:37:19.860Z,3.65
2022-09-15T07:42:21.293Z,4.25
2022-09-15T07:47:23.201Z,3.47
2022-09-15T07:52:24.669Z,3.55
2022-09-15T07:57:27.239Z,3.95
2022-09-15T08:02:28.737Z,3.80
2022-09-15T08:07:30.598Z,3.95
2022-09-15T08:12:32.063Z,3.03
2022-09-15T08:17:34.809Z,3.28
2022-09-15T08:22:36.641Z,3.35
2022-09-15T08:27:38.317Z,3.08
2022-09-15T08:32:39.721Z,3.70
2022-09-15T08:37:41.147Z,4.07
2022-09-15T08:42:45.020Z,3.65
2022-09-15T08:47:48.994Z,3.50
2022-09-15T08:53:00.325Z,2.75
2022-09-15T08:58:01.821Z,3.30
2022-09-15T09:03:39.808Z,3.30
2022-09-15T09:09:12.948Z,2.87
2022-09-15T09:14:26.353Z,3.13
2022-09-15T09:20:05.023Z,2.97
2022-09-15T09:25:26.560Z,3.03
2022-09-15T09:30:32.999Z,2.80
2022-09-15T09:35:50.037Z,2.58
2022-09-15T09:40:52.169Z,2.90
2022-09-15T09:45:53.728Z,3.47
2022-09-15T09:50:55.778Z,2.50
2022-09-15T09:56:12.541Z,3.33
2022-09-15T10:01:20.258Z,2.95
2022-09-15T10:06:22.730Z,2.90
2022-09-15T10:11:40.817Z,3.13
2022-09-15T10:16:43.251Z,2.65
2022-09-15T10:21:45.141Z,3.08
2022-09-15T10:26:46.622Z,2.60
2022-09-15T10:31:48.302Z,2.35
2022-09-15T10:36:49.808Z,2.28
2022-09-15T10:42:33.245Z,2.33
2022-09-15T10:48:23.424Z,2.40
2022-09-15T10:53:42.977Z,2.00
2022-09-15T10:58:50.512Z,2.85
2022-09-15T11:04:42.148Z,1.98
2022-09-15T11:09:46.403Z,2.28
2022-09-15T11:15:03.789Z,2.55
2022-09-15T11:20:42.871Z,2.63
2022-09-15T11:26:00.248Z,2.30
2022-09-15T11:31:09.283Z,2.55
2022-09-15T11:36:15.160Z,2.05
2022-09-15T11:41:40.661Z,2.50
2022-09-15T11:47:19.295Z,2.17
2022-09-15T11:52:29.276Z,2.00
2022-09-15T11:57:37.092Z,2.42
2022-09-15T12:02:59.803Z,2.00
2022-09-15T12:08:06.709Z,2.30
2022-09-15T12:13:18.590Z,2.53
2022-09-15T12:18:52.731Z,2.42
2022-09-15T12:24:12.424Z,2.58
2022-09-15T12:29:26.032Z,2.30
2022-09-15T12:34:31.439Z,2.60
2022-09-15T12:39:44.487Z,2.67
2022-09-15T12:44:50.988Z,2.75
2022-09-15T12:49:56.371Z,2.95
2022-09-15T12:55:03.560Z,3.38
2022-09-15T13:00:20.015Z,3.10
2022-09-15T13:05:43.048Z,3.53
2022-09-15T13:11:02.546Z,3.33
2022-09-15T13:16:12.038Z,3.42
2022-09-15T13:21:17.596Z,3.22
2022-09-15T13:26:26.201Z,3.90
2022-09-15T13:42:46.244Z,3.03
2022-09-15T13:47:51.073Z,3.33
2022-09-15T13:53:07.596Z,3.50
2022-09-15T14:03:53.182Z,2.72
2022-09-15T14:08:58.661Z,3.22
2022-09-15T14:14:03.602Z,2.75
2022-09-15T14:19:30.453Z,2.65
2022-09-15T14:24:32.196Z,3.00
2022-09-15T14:29:38.752Z,2.95
2022-09-15T14:34:42.025Z,2.80
2022-09-15T14:39:50.117Z,2.65
2022-09-15T14:50:21.529Z,2.58
2022-09-15T14:55:54.323Z,2.20
2022-09-15T15:01:08.001Z,2.40
2022-09-15T15:06:32.786Z,2.05
2022-09-15T15:11:36.475Z,2.22
2022-09-15T15:16:51.860Z,2.33
2022-09-15T15:22:07.362Z,1.90
2022-09-15T15:27:40.862Z,2.53
2022-09-15T15:32:42.865Z,1.95
2022-09-15T15:37:44.399Z,2.28
2022-09-15T15:43:07.852Z,2.08
2022-09-15T15:48:09.935Z,2.53
2022-09-15T15:53:11.323Z,2.13
2022-09-15T15:58:14.292Z,2.17
2022-09-15T16:03:17.283Z,1.95
2022-09-15T16:08:26.338Z,2.38
2022-09-15T16:13:28.778Z,2.30
2022-09-15T16:18:30.197Z,2.30
2022-09-15T16:23:31.704Z,2.58
2022-09-15T16:28:33.677Z,2.55
2022-09-15T16:33:38.143Z,2.30
2022-09-15T16:38:41.080Z,2.78
2022-09-15T16:43:43.715Z,2.20
2022-09-15T16:48:47.206Z,2.33
2022-09-15T16:53:50.997Z,2.50
2022-09-15T16:58:58.825Z,2.75
2022-09-15T17:09:03.631Z,2.58
2022-09-15T17:14:05.215Z,3.25
2022-09-15T17:19:06.657Z,3.08
2022-09-15T17:24:08.975Z,2.05
2022-09-15T17:29:10.440Z,2.50
2022-09-15T17:34:14.378Z,2.67
2022-09-15T17:39:15.771Z,3.40
2022-09-15T17:44:17.431Z,3.53
2022-09-15T17:49:18.830Z,2.10
2022-09-15T17:54:20.272Z,2.97
2022-09-15T17:59:21.713Z,3.85
2022-09-15T18:04:23.110Z,2.85
2022-09-15T18:09:25.266Z,2.40
2022-09-15T18:14:26.655Z,2.00
2022-09-15T18:19:28.055Z,2.15
2022-09-15T18:24:30.009Z,2.22
2022-09-15T18:29:31.963Z,2.10
2022-09-15T18:34:33.512Z,1.92
2022-09-15T18:39:35.129Z,2.20
2022-09-15T18:44:36.689Z,2.10
2022-09-15T18:49:38.133Z,2.08
2022-09-15T18:54:39.599Z,1.70
2022-09-15T18:59:41.055Z,1.70
2022-09-15T19:04:43.584Z,2.00
2022-09-15T19:09:45.093Z,1.80
2022-09-15T19:14:46.843Z,2.00
2022-09-15T19:19:48.485Z,2.00
2022-09-15T19:24:49.940Z,1.85
2022-09-15T19:29:51.510Z,2.20
2022-09-15T19:34:52.937Z,1.83
2022-09-15T19:39:54.773Z,2.13
2022-09-15T19:44:56.234Z,2.17
2022-09-15T19:49:57.896Z,2.05
2022-09-15T19:54:59.409Z,2.28
2022-09-15T20:00:00.895Z,2.08
2022-09-15T20:15:22.553Z,2.13
2022-09-15T20:20:24.160Z,2.20
2022-09-15T20:25:25.627Z,2.10
2022-09-15T20:30:27.076Z,2.17
2022-09-15T20:35:28.668Z,2.50
2022-09-15T20:40:31.137Z,2.28
2022-09-15T20:45:37.001Z,2.30
2022-09-15T20:50:38.643Z,2.10
2022-09-15T20:55:40.414Z,1.92
2022-09-15T21:00:41.845Z,2.50
2022-09-15T21:05:43.898Z,1.90
2022-09-15T21:10:45.625Z,1.95
2022-09-15T21:15:58.274Z,2.28
2022-09-15T21:21:11.751Z,2.15
2022-09-15T21:26:16.502Z,2.40
2022-09-15T21:31:20.489Z,2.00
2022-09-15T21:36:24.530Z,1.65
2022-09-15T21:41:32.161Z,2.00
2022-09-15T21:46:33.743Z,2.10
2022-09-15T21:51:36.292Z,2.05
2022-09-15T21:56:37.842Z,1.70
2022-09-15T22:01:39.473Z,2.28
2022-09-15T22:06:41.580Z,2.10
2022-09-15T22:11:43.436Z,1.98
2022-09-15T22:16:44.935Z,2.20
2022-09-15T22:21:46.441Z,1.77
2022-09-15T22:26:47.874Z,2.13
2022-09-15T22:31:49.446Z,2.20
2022-09-15T22:36:50.915Z,2.00
2022-09-15T22:41:52.316Z,1.90
2022-09-15T22:46:53.896Z,1.73
2022-09-15T22:51:55.301Z,1.83
2022-09-15T22:56:56.746Z,1.80
2022-09-15T23:01:58.183Z,2.00
2022-09-15T23:06:59.667Z,1.65
2022-09-15T23:12:01.199Z,1.50
2022-09-15T23:17:02.635Z,2.00
2022-09-15T23:22:04.061Z,1.58
2022-09-15T23:27:05.732Z,1.88
2022-09-15T23:32:07.212Z,1.75
2022-09-15T23:37:08.604Z,1.77
2022-09-15T23:42:10.423Z,1.90
2022-09-15T23:47:11.855Z,1.70
2022-09-15T23:52:13.285Z,1.52
2022-09-15T23:57:14.691Z,1.65
